sensor_id;sensor_type;location;lat;lon;timestamp;P1;durP1;ratioP1;P2;durP2;ratioP2
50363;SDS011;36272;59.400;17.982;2023-02-15T00:00:38;19.05;;;8.38;;
50363;SDS011;36272;59.400;17.982;2023-02-15T00:05:42;14.27;;;7.93;;
50363;SDS011;36272;59.400;17.982;2023-02-15T00:10:44;17.75;;;9.13;;
50363;SDS011;36272;59.400;17.982;2023-02-15T00:15:45;17.98;;;8.98;;
50363;SDS011;36272;59.400;17.982;2023-02-15T00:20:47;22.02;;;9.77;;
50363;SDS011;36272;59.400;17.982;2023-02-15T00:25:48;21.38;;;9.15;;
50363;SDS011;36272;59.400;17.982;2023-02-15T00:30:51;14.70;;;8.45;;
50363;SDS011;36272;59.400;17.982;2023-02-15T00:35:56;17.95;;;8.35;;
50363;SDS011;36272;59.400;17.982;2023-02-15T00:40:59;16.67;;;8.70;;
50363;SDS011;36272;59.400;17.982;2023-02-15T00:46:02;17.83;;;8.50;;
50363;SDS011;36272;59.400;17.982;2023-02-15T00:51:05;15.18;;;8.10;;
50363;SDS011;36272;59.400;17.982;2023-02-15T00:56:07;15.43;;;7.90;;
50363;SDS011;36272;59.400;17.982;2023-02-15T01:01:12;15.20;;;8.02;;
50363;SDS011;36272;59.400;17.982;2023-02-15T01:06:17;17.35;;;7.88;;
50363;SDS011;36272;59.400;17.982;2023-02-15T01:11:20;13.68;;;7.65;;
50363;SDS011;36272;59.400;17.982;2023-02-15T01:16:24;13.60;;;8.02;;
50363;SDS011;36272;59.400;17.982;2023-02-15T01:21:27;16.50;;;7.70;;
50363;SDS011;36272;59.400;17.982;2023-02-15T01:26:29;11.70;;;7.25;;
50363;SDS011;36272;59.400;17.982;2023-02-15T01:31:31;18.67;;;8.13;;
50363;SDS011;36272;59.400;17.982;2023-02-15T01:36:33;13.98;;;7.13;;
50363;SDS011;36272;59.400;17.982;2023-02-15T01:41:35;9.90;;;6.57;;
50363;SDS011;36272;59.400;17.982;2023-02-15T01:46:38;15.20;;;7.07;;
50363;SDS011;36272;59.400;17.982;2023-02-15T01:51:45;16.92;;;7.55;;
50363;SDS011;36272;59.400;17.982;2023-02-15T01:56:48;16.05;;;7.65;;
50363;SDS011;36272;59.400;17.982;2023-02-15T02:07:01;12.80;;;7.45;;
50363;SDS011;36272;59.400;17.982;2023-02-15T02:12:05;15.30;;;7.03;;
50363;SDS011;36272;59.400;17.982;2023-02-15T02:44:07;17.38;;;7.82;;
50363;SDS011;36272;59.400;17.982;2023-02-15T02:54:42;16.98;;;8.10;;
50363;SDS011;36272;59.400;17.982;2023-02-15T02:59:44;15.30;;;8.27;;
50363;SDS011;36272;59.400;17.982;2023-02-15T03:04:50;12.70;;;8.45;;
50363;SDS011;36272;59.400;17.982;2023-02-15T03:10:00;17.60;;;8.25;;
50363;SDS011;36272;59.400;17.982;2023-02-15T03:15:06;16.20;;;8.48;;
50363;SDS011;36272;59.400;17.982;2023-02-15T03:20:16;17.85;;;8.77;;
50363;SDS011;36272;59.400;17.982;2023-02-15T03:25:36;17.80;;;8.50;;
50363;SDS011;36272;59.400;17.982;2023-02-15T03:30:42;14.23;;;8.35;;
50363;SDS011;36272;59.400;17.982;2023-02-15T03:35:51;15.23;;;8.55;;
50363;SDS011;36272;59.400;17.982;2023-02-15T03:41:03;18.60;;;10.35;;
50363;SDS011;36272;59.400;17.982;2023-02-15T03:46:21;16.25;;;9.20;;
50363;SDS011;36272;59.400;17.982;2023-02-15T03:51:26;19.65;;;9.48;;
50363;SDS011;36272;59.400;17.982;2023-02-15T03:56:40;20.35;;;10.40;;
50363;SDS011;36272;59.400;17.982;2023-02-15T04:02:02;19.08;;;10.55;;
50363;SDS011;36272;59.400;17.982;2023-02-15T04:07:16;22.10;;;10.82;;
50363;SDS011;36272;59.400;17.982;2023-02-15T04:12:18;25.55;;;11.88;;
50363;SDS011;36272;59.400;17.982;2023-02-15T04:17:20;19.70;;;11.23;;
50363;SDS011;36272;59.400;17.982;2023-02-15T04:22:21;19.33;;;10.80;;
50363;SDS011;36272;59.400;17.982;2023-02-15T04:27:43;21.63;;;11.27;;
50363;SDS011;36272;59.400;17.982;2023-02-15T04:32:46;21.95;;;12.27;;
50363;SDS011;36272;59.400;17.982;2023-02-15T04:37:48;24.48;;;13.32;;
50363;SDS011;36272;59.400;17.982;2023-02-15T04:42:50;25.38;;;13.45;;
50363;SDS011;36272;59.400;17.982;2023-02-15T04:47:51;25.15;;;13.75;;
50363;SDS011;36272;59.400;17.982;2023-02-15T04:52:53;24.83;;;13.30;;
50363;SDS011;36272;59.400;17.982;2023-02-15T04:57:55;24.55;;;14.07;;
50363;SDS011;36272;59.400;17.982;2023-02-15T05:02:56;32.00;;;14.60;;
50363;SDS011;36272;59.400;17.982;2023-02-15T05:07:58;27.80;;;14.30;;
50363;SDS011;36272;59.400;17.982;2023-02-15T05:13:00;30.13;;;15.93;;
50363;SDS011;36272;59.400;17.982;2023-02-15T05:18:01;29.27;;;14.52;;
50363;SDS011;36272;59.400;17.982;2023-02-15T05:23:03;29.20;;;15.68;;
50363;SDS011;36272;59.400;17.982;2023-02-15T05:28:07;29.63;;;16.00;;
50363;SDS011;36272;59.400;17.982;2023-02-15T05:33:22;32.42;;;15.75;;
50363;SDS011;36272;59.400;17.982;2023-02-15T05:38:24;24.92;;;14.88;;
50363;SDS011;36272;59.400;17.982;2023-02-15T05:43:26;29.20;;;15.50;;
50363;SDS011;36272;59.400;17.982;2023-02-15T05:48:27;29.75;;;16.13;;
50363;SDS011;36272;59.400;17.982;2023-02-15T05:53:30;28.08;;;15.40;;
50363;SDS011;36272;59.400;17.982;2023-02-15T05:58:37;28.83;;;16.55;;
50363;SDS011;36272;59.400;17.982;2023-02-15T06:03:40;31.83;;;15.85;;
50363;SDS011;36272;59.400;17.982;2023-02-15T06:08:42;31.08;;;16.05;;
50363;SDS011;36272;59.400;17.982;2023-02-15T06:13:44;36.92;;;18.10;;
50363;SDS011;36272;59.400;17.982;2023-02-15T06:18:46;32.17;;;17.60;;
50363;SDS011;36272;59.400;17.982;2023-02-15T06:23:47;34.20;;;18.30;;
50363;SDS011;36272;59.400;17.982;2023-02-15T06:28:49;34.47;;;18.08;;
50363;SDS011;36272;59.400;17.982;2023-02-15T06:33:51;36.30;;;17.77;;
50363;SDS011;36272;59.400;17.982;2023-02-15T06:38:52;31.20;;;17.88;;
50363;SDS011;36272;59.400;17.982;2023-02-15T06:43:54;32.35;;;17.10;;
50363;SDS011;36272;59.400;17.982;2023-02-15T06:48:56;32.67;;;17.33;;
50363;SDS011;36272;59.400;17.982;2023-02-15T06:53:57;31.58;;;17.27;;
50363;SDS011;36272;59.400;17.982;2023-02-15T06:58:59;30.85;;;17.15;;
50363;SDS011;36272;59.400;17.982;2023-02-15T07:04:01;35.45;;;17.38;;
50363;SDS011;36272;59.400;17.982;2023-02-15T07:09:02;28.60;;;16.35;;
50363;SDS011;36272;59.400;17.982;2023-02-15T07:14:05;32.28;;;17.33;;
50363;SDS011;36272;59.400;17.982;2023-02-15T07:19:07;28.98;;;16.90;;
50363;SDS011;36272;59.400;17.982;2023-02-15T07:24:08;31.38;;;16.58;;
50363;SDS011;36272;59.400;17.982;2023-02-15T07:29:10;31.08;;;16.52;;
50363;SDS011;36272;59.400;17.982;2023-02-15T07:34:12;28.27;;;15.40;;
50363;SDS011;36272;59.400;17.982;2023-02-15T07:39:13;26.58;;;14.70;;
50363;SDS011;36272;59.400;17.982;2023-02-15T07:44:15;31.65;;;15.35;;
50363;SDS011;36272;59.400;17.982;2023-02-15T07:49:17;23.83;;;13.98;;
50363;SDS011;36272;59.400;17.982;2023-02-15T07:54:18;26.25;;;15.15;;
50363;SDS011;36272;59.400;17.982;2023-02-15T07:59:20;25.10;;;14.63;;
50363;SDS011;36272;59.400;17.982;2023-02-15T08:04:22;25.98;;;14.45;;
50363;SDS011;36272;59.400;17.982;2023-02-15T08:09:24;23.38;;;13.88;;
50363;SDS011;36272;59.400;17.982;2023-02-15T08:14:26;24.67;;;14.02;;
50363;SDS011;36272;59.400;17.982;2023-02-15T08:19:29;20.67;;;13.20;;
50363;SDS011;36272;59.400;17.982;2023-02-15T08:24:33;21.08;;;12.13;;
50363;SDS011;36272;59.400;17.982;2023-02-15T08:29:40;21.50;;;12.20;;
50363;SDS011;36272;59.400;17.982;2023-02-15T08:34:46;22.17;;;11.35;;
50363;SDS011;36272;59.400;17.982;2023-02-15T08:39:48;21.80;;;12.15;;
50363;SDS011;36272;59.400;17.982;2023-02-15T08:44:50;20.45;;;10.90;;
50363;SDS011;36272;59.400;17.982;2023-02-15T08:49:52;19.00;;;11.55;;
50363;SDS011;36272;59.400;17.982;2023-02-15T08:54:54;18.45;;;11.23;;
50363;SDS011;36272;59.400;17.982;2023-02-15T08:59:56;18.15;;;11.48;;
50363;SDS011;36272;59.400;17.982;2023-02-15T09:04:57;21.50;;;12.13;;
50363;SDS011;36272;59.400;17.982;2023-02-15T09:09:59;20.48;;;11.43;;
50363;SDS011;36272;59.400;17.982;2023-02-15T09:15:01;20.52;;;10.55;;
50363;SDS011;36272;59.400;17.982;2023-02-15T09:20:03;17.55;;;10.52;;
50363;SDS011;36272;59.400;17.982;2023-02-15T09:25:09;19.02;;;11.43;;
50363;SDS011;36272;59.400;17.982;2023-02-15T09:30:11;20.38;;;11.02;;
50363;SDS011;36272;59.400;17.982;2023-02-15T09:35:13;16.00;;;9.68;;
50363;SDS011;36272;59.400;17.982;2023-02-15T09:40:15;21.23;;;10.82;;
50363;SDS011;36272;59.400;17.982;2023-02-15T09:45:23;18.50;;;10.80;;
50363;SDS011;36272;59.400;17.982;2023-02-15T10:00:47;17.13;;;9.07;;
50363;SDS011;36272;59.400;17.982;2023-02-15T10:17:05;18.90;;;9.80;;
50363;SDS011;36272;59.400;17.982;2023-02-15T10:28:05;18.08;;;10.50;;
50363;SDS011;36272;59.400;17.982;2023-02-15T10:55:37;21.25;;;10.13;;
50363;SDS011;36272;59.400;17.982;2023-02-15T11:11:07;27.98;;;11.60;;
50363;SDS011;36272;59.400;17.982;2023-02-15T11:16:21;22.27;;;11.25;;
50363;SDS011;36272;59.400;17.982;2023-02-15T11:26:44;22.13;;;11.23;;
50363;SDS011;36272;59.400;17.982;2023-02-15T11:31:55;18.65;;;10.57;;
50363;SDS011;36272;59.400;17.982;2023-02-15T11:37:05;22.65;;;11.80;;
50363;SDS011;36272;59.400;17.982;2023-02-15T11:42:13;25.02;;;11.45;;
50363;SDS011;36272;59.400;17.982;2023-02-15T11:47:19;20.70;;;11.15;;
50363;SDS011;36272;59.400;17.982;2023-02-15T11:52:21;24.83;;;11.20;;
50363;SDS011;36272;59.400;17.982;2023-02-15T11:57:24;21.38;;;11.35;;
50363;SDS011;36272;59.400;17.982;2023-02-15T12:02:33;26.00;;;11.63;;
50363;SDS011;36272;59.400;17.982;2023-02-15T12:07:41;24.47;;;12.33;;
50363;SDS011;36272;59.400;17.982;2023-02-15T12:12:48;26.17;;;12.68;;
50363;SDS011;36272;59.400;17.982;2023-02-15T12:18:43;23.10;;;10.88;;
50363;SDS011;36272;59.400;17.982;2023-02-15T12:24:20;26.85;;;13.23;;
50363;SDS011;36272;59.400;17.982;2023-02-15T12:29:12;24.25;;;12.52;;
50363;SDS011;36272;59.400;17.982;2023-02-15T12:39:32;26.13;;;13.23;;
50363;SDS011;36272;59.400;17.982;2023-02-15T12:44:37;28.23;;;13.38;;
50363;SDS011;36272;59.400;17.982;2023-02-15T12:49:38;27.75;;;13.38;;
50363;SDS011;36272;59.400;17.982;2023-02-15T12:54:41;30.15;;;13.52;;
50363;SDS011;36272;59.400;17.982;2023-02-15T13:10:23;31.27;;;13.65;;
50363;SDS011;36272;59.400;17.982;2023-02-15T13:15:32;30.65;;;13.73;;
50363;SDS011;36272;59.400;17.982;2023-02-15T13:20:37;28.40;;;12.65;;
50363;SDS011;36272;59.400;17.982;2023-02-15T13:25:44;33.08;;;13.65;;
50363;SDS011;36272;59.400;17.982;2023-02-15T13:30:52;31.70;;;13.20;;
50363;SDS011;36272;59.400;17.982;2023-02-15T13:41:27;28.08;;;13.52;;
50363;SDS011;36272;59.400;17.982;2023-02-15T14:02:43;26.15;;;12.52;;
50363;SDS011;36272;59.400;17.982;2023-02-15T14:08:04;27.38;;;12.82;;
50363;SDS011;36272;59.400;17.982;2023-02-15T14:28:59;28.98;;;13.80;;
50363;SDS011;36272;59.400;17.982;2023-02-15T14:55:39;23.13;;;11.18;;
50363;SDS011;36272;59.400;17.982;2023-02-15T15:00:40;23.85;;;11.65;;
50363;SDS011;36272;59.400;17.982;2023-02-15T15:05:47;27.35;;;11.70;;
50363;SDS011;36272;59.400;17.982;2023-02-15T15:27:35;26.00;;;11.65;;
50363;SDS011;36272;59.400;17.982;2023-02-15T15:32:35;22.55;;;10.70;;
50363;SDS011;36272;59.400;17.982;2023-02-15T15:48:45;28.50;;;11.80;;
50363;SDS011;36272;59.400;17.982;2023-02-15T15:53:48;25.15;;;12.13;;
50363;SDS011;36272;59.400;17.982;2023-02-15T15:58:56;23.35;;;10.77;;
50363;SDS011;36272;59.400;17.982;2023-02-15T16:04:01;23.48;;;11.48;;
50363;SDS011;36272;59.400;17.982;2023-02-15T16:09:25;24.75;;;11.57;;
50363;SDS011;36272;59.400;17.982;2023-02-15T16:14:32;24.17;;;12.30;;
50363;SDS011;36272;59.400;17.982;2023-02-15T16:19:41;23.35;;;11.35;;
50363;SDS011;36272;59.400;17.982;2023-02-15T16:35:20;24.35;;;11.93;;
50363;SDS011;36272;59.400;17.982;2023-02-15T16:45:26;25.90;;;12.07;;
50363;SDS011;36272;59.400;17.982;2023-02-15T16:50:32;29.45;;;12.40;;
50363;SDS011;36272;59.400;17.982;2023-02-15T16:55:37;23.17;;;11.57;;
50363;SDS011;36272;59.400;17.982;2023-02-15T17:00:42;26.33;;;12.38;;
50363;SDS011;36272;59.400;17.982;2023-02-15T17:16:22;27.13;;;12.77;;
50363;SDS011;36272;59.400;17.982;2023-02-15T17:21:30;27.83;;;12.18;;
50363;SDS011;36272;59.400;17.982;2023-02-15T17:26:35;24.52;;;12.40;;
50363;SDS011;36272;59.400;17.982;2023-02-15T17:31:38;27.70;;;12.68;;
50363;SDS011;36272;59.400;17.982;2023-02-15T17:36:56;27.55;;;11.68;;
50363;SDS011;36272;59.400;17.982;2023-02-15T17:42:00;27.83;;;12.75;;
50363;SDS011;36272;59.400;17.982;2023-02-15T17:47:03;25.52;;;12.20;;
50363;SDS011;36272;59.400;17.982;2023-02-15T17:52:05;28.40;;;12.23;;
50363;SDS011;36272;59.400;17.982;2023-02-15T17:57:13;25.38;;;11.30;;
50363;SDS011;36272;59.400;17.982;2023-02-15T18:02:18;22.58;;;12.00;;
50363;SDS011;36272;59.400;17.982;2023-02-15T18:07:39;24.50;;;13.02;;
50363;SDS011;36272;59.400;17.982;2023-02-15T18:13:05;26.38;;;13.02;;
50363;SDS011;36272;59.400;17.982;2023-02-15T18:18:12;23.80;;;12.45;;
50363;SDS011;36272;59.400;17.982;2023-02-15T18:23:14;29.63;;;13.25;;
50363;SDS011;36272;59.400;17.982;2023-02-15T18:28:15;26.85;;;12.57;;
50363;SDS011;36272;59.400;17.982;2023-02-15T18:33:34;27.90;;;12.15;;
50363;SDS011;36272;59.400;17.982;2023-02-15T18:38:44;27.63;;;12.55;;
50363;SDS011;36272;59.400;17.982;2023-02-15T18:43:46;26.27;;;13.00;;
50363;SDS011;36272;59.400;17.982;2023-02-15T18:48:51;29.00;;;14.90;;
50363;SDS011;36272;59.400;17.982;2023-02-15T18:59:38;30.65;;;14.13;;
50363;SDS011;36272;59.400;17.982;2023-02-15T19:04:43;31.20;;;15.47;;
50363;SDS011;36272;59.400;17.982;2023-02-15T19:09:56;29.48;;;15.55;;
50363;SDS011;36272;59.400;17.982;2023-02-15T19:15:02;32.13;;;14.80;;
50363;SDS011;36272;59.400;17.982;2023-02-15T19:20:04;36.03;;;16.60;;
50363;SDS011;36272;59.400;17.982;2023-02-15T19:25:06;35.20;;;16.67;;
50363;SDS011;36272;59.400;17.982;2023-02-15T19:30:13;37.23;;;18.47;;
50363;SDS011;36272;59.400;17.982;2023-02-15T19:35:21;37.03;;;17.48;;
50363;SDS011;36272;59.400;17.982;2023-02-15T19:40:36;38.08;;;18.50;;
50363;SDS011;36272;59.400;17.982;2023-02-15T19:45:40;33.55;;;17.60;;
50363;SDS011;36272;59.400;17.982;2023-02-15T19:50:45;38.97;;;18.38;;
50363;SDS011;36272;59.400;17.982;2023-02-15T19:55:48;34.83;;;17.52;;
50363;SDS011;36272;59.400;17.982;2023-02-15T20:00:51;34.13;;;17.17;;
50363;SDS011;36272;59.400;17.982;2023-02-15T20:05:52;35.17;;;17.95;;
50363;SDS011;36272;59.400;17.982;2023-02-15T20:10:55;39.50;;;18.23;;
50363;SDS011;36272;59.400;17.982;2023-02-15T20:15:58;36.38;;;18.85;;
50363;SDS011;36272;59.400;17.982;2023-02-15T20:21:05;37.05;;;17.92;;
50363;SDS011;36272;59.400;17.982;2023-02-15T20:26:13;38.85;;;18.08;;
50363;SDS011;36272;59.400;17.982;2023-02-15T20:36:20;37.88;;;17.45;;
50363;SDS011;36272;59.400;17.982;2023-02-15T20:41:26;37.67;;;17.77;;
50363;SDS011;36272;59.400;17.982;2023-02-15T20:46:37;36.28;;;17.42;;
50363;SDS011;36272;59.400;17.982;2023-02-15T20:51:39;35.45;;;17.13;;
50363;SDS011;36272;59.400;17.982;2023-02-15T20:56:41;37.17;;;18.23;;
50363;SDS011;36272;59.400;17.982;2023-02-15T21:01:43;36.05;;;17.70;;
50363;SDS011;36272;59.400;17.982;2023-02-15T21:06:45;33.67;;;16.08;;
50363;SDS011;36272;59.400;17.982;2023-02-15T21:11:47;33.40;;;16.27;;
50363;SDS011;36272;59.400;17.982;2023-02-15T21:16:51;35.88;;;16.38;;
50363;SDS011;36272;59.400;17.982;2023-02-15T21:21:58;30.98;;;15.18;;
50363;SDS011;36272;59.400;17.982;2023-02-15T21:27:01;31.42;;;15.18;;
50363;SDS011;36272;59.400;17.982;2023-02-15T21:32:04;32.60;;;14.32;;
50363;SDS011;36272;59.400;17.982;2023-02-15T21:37:12;35.72;;;15.40;;
50363;SDS011;36272;59.400;17.982;2023-02-15T21:42:31;33.47;;;15.15;;
50363;SDS011;36272;59.400;17.982;2023-02-15T21:47:57;35.97;;;15.52;;
50363;SDS011;36272;59.400;17.982;2023-02-15T21:52:58;32.72;;;14.88;;
50363;SDS011;36272;59.400;17.982;2023-02-15T21:58:00;36.35;;;15.50;;
50363;SDS011;36272;59.400;17.982;2023-02-15T22:03:02;41.25;;;17.05;;
50363;SDS011;36272;59.400;17.982;2023-02-15T22:08:11;35.60;;;15.93;;
50363;SDS011;36272;59.400;17.982;2023-02-15T22:13:15;36.60;;;15.65;;
50363;SDS011;36272;59.400;17.982;2023-02-15T22:18:29;37.13;;;15.52;;
50363;SDS011;36272;59.400;17.982;2023-02-15T22:23:32;37.50;;;16.08;;
50363;SDS011;36272;59.400;17.982;2023-02-15T22:28:36;35.80;;;15.88;;
50363;SDS011;36272;59.400;17.982;2023-02-15T22:33:39;40.97;;;16.77;;
50363;SDS011;36272;59.400;17.982;2023-02-15T22:38:41;37.45;;;15.98;;
50363;SDS011;36272;59.400;17.982;2023-02-15T22:43:43;36.88;;;15.88;;
50363;SDS011;36272;59.400;17.982;2023-02-15T22:48:45;39.15;;;15.05;;
50363;SDS011;36272;59.400;17.982;2023-02-15T22:53:50;43.13;;;17.00;;
50363;SDS011;36272;59.400;17.982;2023-02-15T22:58:54;43.35;;;17.02;;
50363;SDS011;36272;59.400;17.982;2023-02-15T23:04:02;46.50;;;18.58;;
50363;SDS011;36272;59.400;17.982;2023-02-15T23:09:04;48.88;;;18.90;;
50363;SDS011;36272;59.400;17.982;2023-02-15T23:14:12;44.45;;;18.35;;
50363;SDS011;36272;59.400;17.982;2023-02-15T23:19:29;41.65;;;15.90;;
50363;SDS011;36272;59.400;17.982;2023-02-15T23:24:31;45.42;;;19.00;;
50363;SDS011;36272;59.400;17.982;2023-02-15T23:29:34;43.90;;;17.60;;
50363;SDS011;36272;59.400;17.982;2023-02-15T23:34:36;46.63;;;19.17;;
50363;SDS011;36272;59.400;17.982;2023-02-15T23:39:38;48.03;;;18.83;;
50363;SDS011;36272;59.400;17.982;2023-02-15T23:44:58;47.58;;;19.90;;
50363;SDS011;36272;59.400;17.982;2023-02-15T23:50:00;53.95;;;19.20;;
50363;SDS011;36272;59.400;17.982;2023-02-15T23:55:02;48.85;;;20.40;;
